Time,TemperatureF,DewpointF,PressureIn,WindDirection,WindDirectionDegrees,WindSpeedMPH,WindSpeedGustMPH,Humidity,HourlyPrecipIn,Conditions,Clouds,dailyrainin,SoftwareType,DateUTC
2013-09-16 00:04:00,71.1,50.4,29.85,SE,129,0.0,0.0,48,0.00,,---,0.00,VWS V14.01,2013-09-15 21:04:00,
2013-09-16 00:10:00,71.1,51.0,29.85,SE,128,0.0,0.0,49,0.00,,---,0.00,VWS V14.01,2013-09-15 21:10:00,
2013-09-16 00:15:00,71.1,51.5,29.85,SE,129,0.0,0.0,50,0.00,,---,0.00,VWS V14.01,2013-09-15 21:15:00,
2013-09-16 00:21:00,71.1,51.5,29.85,SE,129,0.0,0.0,50,0.00,,---,0.00,VWS V14.01,2013-09-15 21:21:00,
2013-09-16 00:26:00,70.9,51.3,29.85,SE,128,0.0,0.0,50,0.00,,---,0.00,VWS V14.01,2013-09-15 21:26:00,
2013-09-16 00:32:00,70.9,51.3,29.85,SE,129,0.0,0.0,50,0.00,,---,0.00,VWS V14.01,2013-09-15 21:32:00,
2013-09-16 00:37:00,70.9,51.3,29.85,SE,129,0.0,0.0,50,0.00,,---,0.00,VWS V14.01,2013-09-15 21:37:00,
2013-09-16 00:43:00,70.9,51.3,29.85,SE,129,0.0,0.0,50,0.00,,---,0.00,VWS V14.01,2013-09-15 21:43:00,
2013-09-16 00:48:00,70.7,51.2,29.85,SE,129,0.0,0.0,50,0.00,,---,0.00,VWS V14.01,2013-09-15 21:48:00,
2013-09-16 00:53:00,70.7,52.2,29.85,SE,129,0.0,0.0,52,0.00,,---,0.00,VWS V14.01,2013-09-15 21:53:00,
2013-09-16 00:58:00,70.5,52.6,29.85,SE,129,0.0,0.0,53,0.00,,---,0.00,VWS V14.01,2013-09-15 21:58:00,
2013-09-16 01:04:00,70.5,53.1,29.85,SE,129,0.0,0.0,54,0.00,,---,0.00,VWS V14.01,2013-09-15 22:04:00,
2013-09-16 01:09:00,70.5,53.1,29.85,SE,129,0.0,0.0,54,0.00,,---,0.00,VWS V14.01,2013-09-15 22:09:00,
2013-09-16 01:15:00,70.3,53.4,29.85,SE,129,0.0,0.0,55,0.00,,---,0.00,VWS V14.01,2013-09-15 22:15:00,
2013-09-16 01:21:00,70.3,53.4,29.85,SE,129,0.0,0.0,55,0.00,,---,0.00,VWS V14.01,2013-09-15 22:21:00,
2013-09-16 01:26:00,70.2,53.3,29.85,SE,129,0.0,0.0,55,0.00,,---,0.00,VWS V14.01,2013-09-15 22:26:00,
2013-09-16 01:32:00,70.2,53.8,29.85,SE,129,0.0,0.0,56,0.00,,---,0.00,VWS V14.01,2013-09-15 22:32:00,
2013-09-16 01:37:00,70.2,53.8,29.83,SE,129,0.0,0.0,56,0.00,,---,0.00,VWS V14.01,2013-09-15 22:37:00,
2013-09-16 01:43:00,70.2,53.8,29.83,SE,129,0.0,0.0,56,0.00,,---,0.00,VWS V14.01,2013-09-15 22:43:00,
2013-09-16 01:49:00,70.3,54.4,29.83,SE,129,0.0,0.0,57,0.00,,---,0.00,VWS V14.01,2013-09-15 22:49:00,
2013-09-16 01:54:00,70.5,54.6,29.83,SE,129,0.0,0.0,57,0.00,,---,0.00,VWS V14.01,2013-09-15 22:54:00,
2013-09-16 02:00:00,70.3,54.4,29.83,SE,129,0.0,0.0,57,0.00,,---,0.00,VWS V14.01,2013-09-15 23:00:00,
2013-09-16 02:05:00,70.2,54.2,29.83,SE,129,0.0,0.0,57,0.00,,---,0.00,VWS V14.01,2013-09-15 23:05:00,
2013-09-16 02:10:00,70.2,54.2,29.83,SE,129,0.0,0.0,57,0.00,,---,0.00,VWS V14.01,2013-09-15 23:10:00,
2013-09-16 02:16:00,70.0,54.5,29.83,SE,129,0.0,0.0,58,0.00,,---,0.00,VWS V14.01,2013-09-15 23:16:00,
2013-09-16 02:21:00,69.8,54.8,29.83,SE,129,0.0,0.0,59,0.00,,---,0.00,VWS V14.01,2013-09-15 23:21:00,
2013-09-16 02:26:00,69.8,54.8,29.83,SSW,199,0.0,5.4,59,0.00,,---,0.00,VWS V14.01,2013-09-15 23:26:00,
2013-09-16 02:32:00,69.8,55.3,29.83,South,189,0.0,0.0,60,0.00,,---,0.00,VWS V14.01,2013-09-15 23:32:00,
2013-09-16 02:38:00,70.0,55.9,29.83,South,177,0.0,0.0,61,0.00,,---,0.00,VWS V14.01,2013-09-15 23:38:00,
2013-09-16 02:44:00,70.2,56.5,29.83,SSW,204,3.6,3.6,62,0.00,,---,0.00,VWS V14.01,2013-09-15 23:44:00,
2013-09-16 02:49:00,70.3,57.2,29.83,SW,224,5.8,5.8,63,0.00,,---,0.00,VWS V14.01,2013-09-15 23:49:00,
2013-09-16 02:55:00,70.3,58.0,29.83,SW,220,5.4,8.3,65,0.00,,---,0.00,VWS V14.01,2013-09-15 23:55:00,
2013-09-16 03:00:00,70.3,58.5,29.83,SSW,205,3.6,5.8,66,0.00,,---,0.00,VWS V14.01,2013-09-16 00:00:00,
2013-09-16 03:06:00,70.3,58.5,29.83,SSW,198,4.9,5.4,66,0.00,,---,0.00,VWS V14.01,2013-09-16 00:06:00,
2013-09-16 03:12:00,70.5,59.5,29.83,SSW,198,6.3,6.3,68,0.00,,---,0.00,VWS V14.01,2013-09-16 00:12:00,
2013-09-16 03:17:00,70.7,60.0,29.83,SW,227,4.0,8.1,69,0.00,,---,0.00,VWS V14.01,2013-09-16 00:17:00,
2013-09-16 03:23:00,70.7,60.5,29.83,SW,220,8.3,8.3,70,0.00,,---,0.00,VWS V14.01,2013-09-16 00:23:00,
2013-09-16 03:29:00,70.7,60.8,29.83,SSW,200,3.1,4.9,71,0.00,,---,0.00,VWS V14.01,2013-09-16 00:29:00,
2013-09-16 03:34:00,70.7,60.8,29.83,SSW,198,6.3,8.3,71,0.00,,---,0.00,VWS V14.01,2013-09-16 00:34:00,
2013-09-16 03:40:00,70.5,60.7,29.80,South,173,0.0,0.0,71,0.00,,---,0.00,VWS V14.01,2013-09-16 00:40:00,
2013-09-16 03:45:00,70.5,60.7,29.80,SW,215,4.5,5.4,71,0.00,,---,0.00,VWS V14.01,2013-09-16 00:45:00,
2013-09-16 03:51:00,70.3,60.9,29.80,SW,215,4.0,5.8,72,0.00,,---,0.00,VWS V14.01,2013-09-16 00:51:00,
2013-09-16 03:56:00,70.3,61.3,29.80,SSW,203,2.7,4.5,73,0.00,,---,0.00,VWS V14.01,2013-09-16 00:56:00,
2013-09-16 04:02:00,70.2,61.1,29.80,South,185,4.9,6.3,73,0.00,,---,0.00,VWS V14.01,2013-09-16 01:02:00,
2013-09-16 04:08:00,70.2,61.5,29.80,SSW,207,5.4,5.4,74,0.00,,---,0.00,VWS V14.01,2013-09-16 01:08:00,
2013-09-16 04:13:00,70.2,61.5,29.80,SW,228,3.6,8.3,74,0.00,,---,0.00,VWS V14.01,2013-09-16 01:13:00,
2013-09-16 04:19:00,70.2,61.5,29.80,SW,224,5.4,6.7,74,0.00,,---,0.00,VWS V14.01,2013-09-16 01:19:00,
2013-09-16 04:25:00,70.2,61.9,29.80,SSW,207,5.8,8.3,75,0.00,,---,0.00,VWS V14.01,2013-09-16 01:25:00,
2013-09-16 04:30:00,70.2,61.9,29.80,SW,219,4.9,7.6,75,0.00,,---,0.00,VWS V14.01,2013-09-16 01:30:00,
2013-09-16 04:36:00,70.2,61.9,29.80,SSW,203,4.9,5.8,75,0.00,,---,0.00,VWS V14.01,2013-09-16 01:36:00,
2013-09-16 04:41:00,70.2,61.5,29.80,WSW,243,3.6,4.0,74,0.00,,---,0.00,VWS V14.01,2013-09-16 01:41:00,
2013-09-16 04:47:00,70.2,61.9,29.80,SSW,210,5.4,5.4,75,0.00,,---,0.00,VWS V14.01,2013-09-16 01:47:00,
2013-09-16 04:53:00,70.2,61.5,29.80,SSW,200,3.1,5.4,74,0.00,,---,0.00,VWS V14.01,2013-09-16 01:53:00,
2013-09-16 04:58:00,70.2,61.5,29.80,SSW,208,3.1,4.0,74,0.00,,---,0.00,VWS V14.01,2013-09-16 01:58:00,
2013-09-16 05:04:00,70.0,61.3,29.80,SSW,211,0.0,0.0,74,0.00,,---,0.00,VWS V14.01,2013-09-16 02:04:00,
2013-09-16 05:10:00,69.8,61.2,29.80,SSE,158,0.0,0.0,74,0.00,,---,0.00,VWS V14.01,2013-09-16 02:10:00,
2013-09-16 05:15:00,69.8,61.2,29.80,South,187,3.6,3.6,74,0.00,,---,0.00,VWS V14.01,2013-09-16 02:15:00,
2013-09-16 05:21:00,69.6,61.3,29.80,SSW,200,3.1,4.0,75,0.00,,---,0.00,VWS V14.01,2013-09-16 02:21:00,
2013-09-16 05:26:00,69.6,61.3,29.80,SW,226,0.0,0.0,75,0.00,,---,0.00,VWS V14.01,2013-09-16 02:26:00,
2013-09-16 05:32:00,69.4,61.2,29.80,SW,218,0.0,0.0,75,0.00,,---,0.00,VWS V14.01,2013-09-16 02:32:00,
2013-09-16 05:37:00,69.4,61.2,29.80,SSW,211,0.0,0.0,75,0.00,,---,0.00,VWS V14.01,2013-09-16 02:37:00,
2013-09-16 05:43:00,69.3,61.0,29.80,South,178,0.0,0.0,75,0.00,,---,0.00,VWS V14.01,2013-09-16 02:43:00,
2013-09-16 05:48:00,69.3,61.0,29.80,SSW,201,0.0,0.0,75,0.00,,---,0.00,VWS V14.01,2013-09-16 02:48:00,
2013-09-16 05:54:00,69.3,61.0,29.80,SSW,212,0.0,0.0,75,0.00,,---,0.00,VWS V14.01,2013-09-16 02:54:00,
2013-09-16 05:59:00,69.1,60.8,29.80,SSW,196,0.0,0.0,75,0.00,,---,0.00,VWS V14.01,2013-09-16 02:59:00,
2013-09-16 06:04:00,68.9,60.7,29.80,South,180,0.0,0.0,75,0.00,,---,0.00,VWS V14.01,2013-09-16 03:04:00,
2013-09-16 06:09:00,68.9,60.7,29.80,SSW,211,0.0,0.0,75,0.00,,---,0.00,VWS V14.01,2013-09-16 03:09:00,
2013-09-16 06:15:00,68.9,60.7,29.80,SSW,210,2.7,4.9,75,0.00,,---,0.00,VWS V14.01,2013-09-16 03:15:00,
2013-09-16 06:21:00,68.7,60.1,29.80,SW,221,3.6,6.3,74,0.00,,---,0.00,VWS V14.01,2013-09-16 03:21:00,
2013-09-16 06:26:00,68.7,60.1,29.80,SW,218,4.9,5.8,74,0.00,,---,0.00,VWS V14.01,2013-09-16 03:26:00,
2013-09-16 06:32:00,68.7,59.7,29.80,SSW,202,5.8,6.3,73,0.00,,---,0.00,VWS V14.01,2013-09-16 03:32:00,
2013-09-16 06:38:00,68.9,59.5,29.80,SSE,160,4.9,5.4,72,0.00,,---,0.00,VWS V14.01,2013-09-16 03:38:00,
2013-09-16 06:43:00,68.9,59.5,29.80,SW,224,3.6,5.4,72,0.00,,---,0.00,VWS V14.01,2013-09-16 03:43:00,
2013-09-16 06:49:00,68.9,59.5,29.80,SSW,194,0.0,0.0,72,0.00,,---,0.00,VWS V14.01,2013-09-16 03:49:00,
2013-09-16 06:54:00,68.9,59.5,29.80,SW,222,0.0,0.0,72,0.00,,---,0.00,VWS V14.01,2013-09-16 03:54:00,
2013-09-16 07:00:00,68.9,59.5,29.80,SW,221,2.7,4.5,72,0.00,,---,0.00,VWS V14.01,2013-09-16 04:00:00,
2013-09-16 07:01:00,68.9,59.5,29.80,SW,220,0.0,2.7,72,0.00,,---,0.00,VWS V14.01,2013-09-16 04:01:00,
2013-09-16 07:03:00,68.9,59.5,29.80,SW,221,0.0,0.0,72,0.00,,---,0.00,VWS V14.01,2013-09-16 04:03:00,
2013-09-16 07:04:00,68.9,59.5,29.80,South,186,0.0,0.0,72,0.00,,---,0.00,VWS V14.01,2013-09-16 04:04:00,
2013-09-16 07:06:00,68.9,59.5,29.80,SSW,213,0.0,0.0,72,0.00,,---,0.00,VWS V14.01,2013-09-16 04:06:00,
2013-09-16 07:09:00,68.7,59.3,29.80,SSW,193,0.0,0.0,72,0.00,,---,0.00,VWS V14.01,2013-09-16 04:09:00,
2013-09-16 07:10:00,68.7,59.3,29.80,SSW,198,0.0,0.0,72,0.00,,---,0.00,VWS V14.01,2013-09-16 04:10:00,
2013-09-16 07:15:00,68.7,59.3,29.80,SSW,200,0.0,5.4,72,0.00,,---,0.00,VWS V14.01,2013-09-16 04:15:00,
2013-09-16 07:21:00,68.9,59.9,29.80,SSW,196,3.6,4.9,73,0.00,,---,0.00,VWS V14.01,2013-09-16 04:21:00,
2013-09-16 07:27:00,68.9,59.9,29.80,SW,225,4.9,5.4,73,0.00,,---,0.00,VWS V14.01,2013-09-16 04:27:00,
2013-09-16 07:32:00,69.1,60.1,29.80,WSW,246,7.6,7.6,73,0.00,,---,0.00,VWS V14.01,2013-09-16 04:32:00,
2013-09-16 07:37:00,69.6,61.0,29.80,SSE,160,3.6,5.4,74,0.00,,---,0.00,VWS V14.01,2013-09-16 04:37:00,
2013-09-16 07:42:00,69.8,60.8,29.80,SSE,160,0.0,0.0,73,0.00,,---,0.00,VWS V14.01,2013-09-16 04:42:00,
2013-09-16 07:48:00,69.8,60.8,29.80,SSE,160,0.0,0.0,73,0.00,,---,0.00,VWS V14.01,2013-09-16 04:48:00,
2013-09-16 07:53:00,70.0,60.9,29.77,SW,216,3.6,6.3,73,0.00,,---,0.00,VWS V14.01,2013-09-16 04:53:00,
2013-09-16 07:58:00,70.3,61.3,29.77,SW,235,0.0,5.8,73,0.00,,---,0.00,VWS V14.01,2013-09-16 04:58:00,
2013-09-16 08:03:00,70.7,61.6,29.77,WSW,237,5.4,5.8,73,0.00,,---,0.00,VWS V14.01,2013-09-16 05:03:00,
2013-09-16 08:08:00,70.9,61.8,29.77,South,184,4.0,8.3,73,0.00,,---,0.00,VWS V14.01,2013-09-16 05:08:00,
2013-09-16 08:14:00,71.1,61.6,29.77,SW,221,0.0,0.0,72,0.00,,---,0.00,VWS V14.01,2013-09-16 05:14:00,
2013-09-16 08:20:00,71.2,62.2,29.77,South,191,0.0,0.0,73,0.00,,---,0.00,VWS V14.01,2013-09-16 05:20:00,
2013-09-16 08:25:00,71.6,61.7,29.77,SSE,147,3.6,5.4,71,0.00,,---,0.00,VWS V14.01,2013-09-16 05:25:00,
2013-09-16 08:31:00,71.8,61.5,29.77,SSW,197,3.1,4.9,70,0.00,,---,0.00,VWS V14.01,2013-09-16 05:31:00,
2013-09-16 08:37:00,71.8,61.5,29.77,SSW,195,0.0,0.0,70,0.00,,---,0.00,VWS V14.01,2013-09-16 05:37:00,
2013-09-16 08:42:00,72.0,61.7,29.74,ESE,119,0.0,0.0,70,0.00,,---,0.00,VWS V14.01,2013-09-16 05:42:00,
2013-09-16 08:48:00,72.3,61.6,29.74,SSW,194,3.1,3.6,69,0.00,,---,0.00,VWS V14.01,2013-09-16 05:48:00,
2013-09-16 08:53:00,72.3,60.8,29.77,South,185,3.1,6.3,67,0.00,,---,0.00,VWS V14.01,2013-09-16 05:53:00,
2013-09-16 08:59:00,72.5,60.5,29.77,South,180,0.0,3.1,66,0.00,,---,0.00,VWS V14.01,2013-09-16 05:59:00,
2013-09-16 09:05:00,72.9,60.4,29.77,SW,218,4.0,5.4,65,0.00,,---,0.00,VWS V14.01,2013-09-16 06:05:00,
2013-09-16 09:10:00,73.0,60.2,29.77,WSW,257,2.7,4.0,64,0.00,,---,0.00,VWS V14.01,2013-09-16 06:10:00,
2013-09-16 09:16:00,73.4,60.0,29.77,WSW,256,7.2,9.6,63,0.00,,---,0.00,VWS V14.01,2013-09-16 06:16:00,
2013-09-16 09:21:00,73.6,59.3,29.77,WSW,240,3.6,3.6,61,0.00,,---,0.00,VWS V14.01,2013-09-16 06:21:00,
2013-09-16 09:26:00,73.8,58.5,29.77,SW,226,4.9,4.9,59,0.00,,---,0.00,VWS V14.01,2013-09-16 06:26:00,
2013-09-16 09:32:00,73.9,57.8,29.77,SW,223,6.3,8.7,57,0.00,,---,0.00,VWS V14.01,2013-09-16 06:32:00,
2013-09-16 09:38:00,74.1,57.4,29.77,SW,224,4.0,8.3,56,0.00,,---,0.00,VWS V14.01,2013-09-16 06:38:00,
2013-09-16 09:43:00,74.3,57.6,29.77,West,263,7.2,8.3,56,0.00,,---,0.00,VWS V14.01,2013-09-16 06:43:00,
2013-09-16 09:48:00,74.3,58.1,29.77,South,187,5.8,6.3,57,0.00,,---,0.00,VWS V14.01,2013-09-16 06:48:00,
2013-09-16 09:54:00,74.3,57.6,29.77,WNW,289,4.9,10.5,56,0.00,,---,0.00,VWS V14.01,2013-09-16 06:54:00,
2013-09-16 10:00:00,74.3,57.6,29.77,WSW,250,7.6,7.6,56,0.00,,---,0.00,VWS V14.01,2013-09-16 07:00:00,
2013-09-16 10:05:00,74.5,58.3,29.77,SSW,210,12.3,12.8,57,0.00,,---,0.00,VWS V14.01,2013-09-16 07:05:00,
2013-09-16 10:10:00,74.7,58.4,29.77,SSW,206,9.2,9.2,57,0.00,,---,0.00,VWS V14.01,2013-09-16 07:10:00,
2013-09-16 10:16:00,74.7,58.4,29.77,SW,235,6.3,7.6,57,0.00,,---,0.00,VWS V14.01,2013-09-16 07:16:00,
2013-09-16 10:21:00,74.8,58.6,29.77,SW,229,6.3,6.3,57,0.00,,---,0.00,VWS V14.01,2013-09-16 07:21:00,
2013-09-16 10:27:00,75.0,58.8,29.77,SSW,200,7.6,11.0,57,0.00,,---,0.00,VWS V14.01,2013-09-16 07:27:00,
2013-09-16 10:32:00,75.2,57.9,29.77,WSW,250,7.6,7.6,55,0.00,,---,0.00,VWS V14.01,2013-09-16 07:32:00,
2013-09-16 10:38:00,75.4,57.1,29.77,WSW,247,7.2,7.6,53,0.00,,---,0.00,VWS V14.01,2013-09-16 07:38:00,
2013-09-16 10:44:00,75.9,57.6,29.77,SSW,194,5.4,8.7,53,0.00,,---,0.00,VWS V14.01,2013-09-16 07:44:00,
2013-09-16 10:50:00,76.1,57.8,29.77,WSW,244,7.6,8.1,53,0.00,,---,0.00,VWS V14.01,2013-09-16 07:50:00,
2013-09-16 10:55:00,76.3,57.9,29.77,SW,229,10.1,10.1,53,0.00,,---,0.00,VWS V14.01,2013-09-16 07:55:00,
2013-09-16 11:01:00,76.1,55.0,29.77,West,264,7.2,11.9,48,0.00,,---,0.00,VWS V14.01,2013-09-16 08:01:00,
2013-09-16 11:06:00,76.5,54.8,29.77,South,169,8.7,8.7,47,0.00,,---,0.00,VWS V14.01,2013-09-16 08:06:00,
2013-09-16 11:12:00,76.5,54.8,29.77,WSW,241,11.0,11.0,47,0.00,,---,0.00,VWS V14.01,2013-09-16 08:12:00,
2013-09-16 11:17:00,76.3,54.6,29.77,SW,228,10.1,10.1,47,0.00,,---,0.00,VWS V14.01,2013-09-16 08:17:00,
2013-09-16 11:23:00,76.5,54.2,29.77,SW,235,5.4,7.6,46,0.00,,---,0.00,VWS V14.01,2013-09-16 08:23:00,
2013-09-16 11:28:00,76.1,53.8,29.77,South,179,2.7,5.8,46,0.00,,---,0.00,VWS V14.01,2013-09-16 08:28:00,
2013-09-16 11:34:00,76.6,54.9,29.77,SW,222,6.3,6.3,47,0.00,,---,0.00,VWS V14.01,2013-09-16 08:34:00,
2013-09-16 11:39:00,77.0,54.7,29.74,WSW,239,8.1,8.3,46,0.00,,---,0.00,VWS V14.01,2013-09-16 08:39:00,
2013-09-16 11:44:00,77.0,54.1,29.74,South,188,8.1,8.1,45,0.00,,---,0.00,VWS V14.01,2013-09-16 08:44:00,
2013-09-16 11:50:00,76.8,54.5,29.74,SW,217,7.2,7.2,46,0.00,,---,0.00,VWS V14.01,2013-09-16 08:50:00,
2013-09-16 11:55:00,76.6,54.9,29.74,WSW,253,10.5,13.2,47,0.00,,---,0.00,VWS V14.01,2013-09-16 08:55:00,
2013-09-16 12:01:00,75.9,53.7,29.74,SSW,212,7.6,8.1,46,0.00,,---,0.00,VWS V14.01,2013-09-16 09:01:00,
2013-09-16 12:07:00,75.6,53.3,29.74,SSW,202,7.6,7.6,46,0.00,,---,0.00,VWS V14.01,2013-09-16 09:07:00,
2013-09-16 12:13:00,75.6,53.3,29.74,WSW,249,3.1,4.0,46,0.00,,---,0.00,VWS V14.01,2013-09-16 09:13:00,
2013-09-16 12:19:00,75.6,53.3,29.74,SW,223,5.8,8.1,46,0.00,,---,0.00,VWS V14.01,2013-09-16 09:19:00,
2013-09-16 12:24:00,75.6,53.9,29.74,SW,215,8.1,8.7,47,0.00,,---,0.00,VWS V14.01,2013-09-16 09:24:00,
2013-09-16 12:29:00,75.6,53.9,29.74,SW,216,9.6,9.6,47,0.00,,---,0.00,VWS V14.01,2013-09-16 09:29:00,
2013-09-16 12:35:00,75.2,53.0,29.74,SSW,199,6.3,8.1,46,0.00,,---,0.00,VWS V14.01,2013-09-16 09:35:00,
2013-09-16 12:40:00,75.2,54.2,29.74,SSW,198,5.8,8.7,48,0.00,,---,0.00,VWS V14.01,2013-09-16 09:40:00,
2013-09-16 12:46:00,74.8,55.0,29.74,SSW,195,7.6,7.6,50,0.00,,---,0.00,VWS V14.01,2013-09-16 09:46:00,
2013-09-16 12:51:00,74.8,55.0,29.74,SSW,207,6.3,10.5,50,0.00,,---,0.00,VWS V14.01,2013-09-16 09:51:00,
2013-09-16 12:57:00,75.0,55.1,29.74,SW,221,6.3,6.3,50,0.00,,---,0.00,VWS V14.01,2013-09-16 09:57:00,
2013-09-16 13:02:00,75.2,55.3,29.74,SW,218,6.3,6.3,50,0.00,,---,0.00,VWS V14.01,2013-09-16 10:02:00,
2013-09-16 13:08:00,75.4,55.5,29.71,WSW,252,3.6,4.0,50,0.00,,---,0.00,VWS V14.01,2013-09-16 10:08:00,
2013-09-16 13:13:00,75.4,54.9,29.71,West,270,8.1,8.1,49,0.00,,---,0.00,VWS V14.01,2013-09-16 10:13:00,
2013-09-16 13:18:00,75.6,55.1,29.71,SW,226,7.6,8.7,49,0.00,,---,0.00,VWS V14.01,2013-09-16 10:18:00,
2013-09-16 13:24:00,75.6,55.6,29.74,West,268,6.3,7.6,50,0.00,,---,0.00,VWS V14.01,2013-09-16 10:24:00,
2013-09-16 13:29:00,75.7,56.9,29.74,South,176,3.1,6.7,52,0.00,,---,0.00,VWS V14.01,2013-09-16 10:29:00,
2013-09-16 13:35:00,75.7,56.9,29.74,SSW,194,6.3,6.7,52,0.00,,---,0.00,VWS V14.01,2013-09-16 10:35:00,
2013-09-16 13:40:00,75.7,57.4,29.74,SSW,196,6.3,6.3,53,0.00,,---,0.00,VWS V14.01,2013-09-16 10:40:00,
2013-09-16 13:46:00,75.7,57.4,29.74,SSW,204,7.6,8.1,53,0.00,,---,0.00,VWS V14.01,2013-09-16 10:46:00,
2013-09-16 13:52:00,75.6,57.2,29.74,SSW,206,8.7,9.6,53,0.00,,---,0.00,VWS V14.01,2013-09-16 10:52:00,
2013-09-16 13:57:00,75.6,57.2,29.74,South,169,4.0,8.1,53,0.00,,---,0.00,VWS V14.01,2013-09-16 10:57:00,
2013-09-16 14:03:00,75.9,58.1,29.74,SSE,158,8.3,10.1,54,0.00,,---,0.00,VWS V14.01,2013-09-16 11:03:00,
2013-09-16 14:09:00,76.1,56.7,29.71,West,263,5.4,8.7,51,0.00,,---,0.00,VWS V14.01,2013-09-16 11:09:00,
2013-09-16 14:14:00,76.6,56.1,29.71,SW,231,5.4,7.6,49,0.00,,---,0.00,VWS V14.01,2013-09-16 11:14:00,
2013-09-16 14:20:00,76.8,56.2,29.71,SW,217,5.4,5.8,49,0.00,,---,0.00,VWS V14.01,2013-09-16 11:20:00,
2013-09-16 14:25:00,76.8,57.3,29.71,SSW,201,7.6,8.3,51,0.00,,---,0.00,VWS V14.01,2013-09-16 11:25:00,
2013-09-16 14:30:00,76.8,56.8,29.71,SSW,194,4.0,8.3,50,0.00,,---,0.00,VWS V14.01,2013-09-16 11:30:00,
2013-09-16 14:35:00,76.8,56.8,29.71,West,260,5.4,6.7,50,0.00,,---,0.00,VWS V14.01,2013-09-16 11:35:00,
2013-09-16 14:41:00,77.0,55.8,29.71,South,172,5.4,6.3,48,0.00,,---,0.00,VWS V14.01,2013-09-16 11:41:00,
2013-09-16 14:46:00,77.4,55.0,29.71,WSW,258,8.7,8.7,46,0.00,,---,0.00,VWS V14.01,2013-09-16 11:46:00,
2013-09-16 14:51:00,77.5,55.2,29.71,SW,223,6.7,8.7,46,0.00,,---,0.00,VWS V14.01,2013-09-16 11:51:00,
2013-09-16 14:57:00,77.4,55.6,29.71,WSW,251,7.6,7.6,47,0.00,,---,0.00,VWS V14.01,2013-09-16 11:57:00,
2013-09-16 15:03:00,77.5,56.9,29.71,SSW,210,8.3,11.4,49,0.00,,---,0.00,VWS V14.01,2013-09-16 12:03:00,
2013-09-16 15:09:00,77.5,56.9,29.68,SW,217,3.1,6.3,49,0.00,,---,0.00,VWS V14.01,2013-09-16 12:09:00,
2013-09-16 15:14:00,77.5,57.5,29.68,SW,219,6.3,6.3,50,0.00,,---,0.00,VWS V14.01,2013-09-16 12:14:00,
2013-09-16 15:20:00,77.4,58.4,29.68,SW,218,3.1,4.0,52,0.00,,---,0.00,VWS V14.01,2013-09-16 12:20:00,
2013-09-16 15:25:00,77.4,58.4,29.68,SW,214,3.6,5.4,52,0.00,,---,0.00,VWS V14.01,2013-09-16 12:25:00,
2013-09-16 15:31:00,77.4,58.9,29.68,South,190,3.6,3.6,53,0.00,,---,0.00,VWS V14.01,2013-09-16 12:31:00,
2013-09-16 15:36:00,77.4,58.9,29.68,WSW,252,4.0,7.6,53,0.00,,---,0.00,VWS V14.01,2013-09-16 12:36:00,
2013-09-16 15:41:00,77.0,58.6,29.68,WSW,255,3.1,5.4,53,0.00,,---,0.00,VWS V14.01,2013-09-16 12:41:00,
2013-09-16 15:47:00,76.8,58.4,29.68,WSW,247,5.4,5.8,53,0.00,,---,0.00,VWS V14.01,2013-09-16 12:47:00,
2013-09-16 15:52:00,76.8,58.4,29.65,WSW,240,0.0,4.0,53,0.00,,---,0.00,VWS V14.01,2013-09-16 12:52:00,
2013-09-16 15:58:00,76.8,58.9,29.65,West,261,0.0,3.6,54,0.00,,---,0.00,VWS V14.01,2013-09-16 12:58:00,
2013-09-16 16:03:00,77.0,59.6,29.65,West,275,2.7,3.6,55,0.00,,---,0.00,VWS V14.01,2013-09-16 13:03:00,
2013-09-16 16:09:00,77.4,60.0,29.65,SSW,204,0.0,0.0,55,0.00,,---,0.00,VWS V14.01,2013-09-16 13:09:00,
2013-09-16 16:15:00,77.7,60.3,29.65,SW,216,6.3,6.3,55,0.00,,---,0.00,VWS V14.01,2013-09-16 13:15:00,
2013-09-16 16:20:00,77.7,59.8,29.65,SSW,204,0.0,2.2,54,0.00,,---,0.00,VWS V14.01,2013-09-16 13:20:00,
2013-09-16 16:26:00,77.9,60.5,29.62,SW,222,2.2,3.6,55,0.00,,---,0.00,VWS V14.01,2013-09-16 13:26:00,
2013-09-16 16:31:00,77.9,60.5,29.62,SSW,206,0.0,0.0,55,0.00,,---,0.00,VWS V14.01,2013-09-16 13:31:00,
2013-09-16 16:36:00,78.1,59.6,29.62,West,276,6.3,6.3,53,0.00,,---,0.00,VWS V14.01,2013-09-16 13:36:00,
2013-09-16 16:41:00,78.4,59.9,29.65,West,276,0.0,0.0,53,0.00,,---,0.00,VWS V14.01,2013-09-16 13:41:00,
2013-09-16 16:47:00,78.4,59.9,29.65,SW,230,5.8,6.3,53,0.00,,---,0.00,VWS V14.01,2013-09-16 13:47:00,
2013-09-16 16:52:00,78.6,59.5,29.62,West,265,0.0,3.1,52,0.00,,---,0.00,VWS V14.01,2013-09-16 13:52:00,
2013-09-16 16:58:00,78.8,58.6,29.62,SSE,158,0.0,0.0,50,0.00,,---,0.00,VWS V14.01,2013-09-16 13:58:00,
2013-09-16 17:04:00,78.8,58.6,29.62,West,277,0.0,0.0,50,0.00,,---,0.00,VWS V14.01,2013-09-16 14:04:00,
2013-09-16 17:10:00,78.8,58.6,29.65,West,264,5.4,5.4,50,0.00,,---,0.00,VWS V14.01,2013-09-16 14:10:00,
2013-09-16 17:15:00,78.8,58.6,29.65,SSW,201,0.0,0.0,50,0.00,,---,0.00,VWS V14.01,2013-09-16 14:15:00,
2013-09-16 17:20:00,78.6,59.5,29.65,WSW,240,5.4,5.4,52,0.00,,---,0.00,VWS V14.01,2013-09-16 14:20:00,
2013-09-16 17:26:00,78.4,59.4,29.65,SSW,212,5.4,5.8,52,0.00,,---,0.00,VWS V14.01,2013-09-16 14:26:00,
2013-09-16 17:31:00,78.4,59.9,29.65,SW,225,3.6,5.4,53,0.00,,---,0.00,VWS V14.01,2013-09-16 14:31:00,
2013-09-16 17:37:00,78.3,59.7,29.62,SW,214,3.6,3.6,53,0.00,,---,0.00,VWS V14.01,2013-09-16 14:37:00,
2013-09-16 17:43:00,78.1,60.1,29.62,SSW,195,3.6,5.8,54,0.00,,---,0.00,VWS V14.01,2013-09-16 14:43:00,
2013-09-16 17:48:00,77.9,59.9,29.62,SSW,203,0.0,0.0,54,0.00,,---,0.00,VWS V14.01,2013-09-16 14:48:00,
2013-09-16 17:54:00,77.9,59.9,29.62,SSW,212,0.0,0.0,54,0.00,,---,0.00,VWS V14.01,2013-09-16 14:54:00,
2013-09-16 18:00:00,77.7,59.8,29.62,West,266,0.0,0.0,54,0.00,,---,0.00,VWS V14.01,2013-09-16 15:00:00,
2013-09-16 18:05:00,77.7,59.8,29.62,WSW,245,4.0,6.3,54,0.00,,---,0.00,VWS V14.01,2013-09-16 15:05:00,
2013-09-16 18:11:00,77.7,59.8,29.62,WSW,237,6.3,6.3,54,0.00,,---,0.00,VWS V14.01,2013-09-16 15:11:00,
2013-09-16 18:16:00,77.7,60.3,29.62,SSW,207,0.0,6.3,55,0.00,,---,0.00,VWS V14.01,2013-09-16 15:16:00,
2013-09-16 18:22:00,77.7,60.3,29.59,WSW,249,0.0,5.8,55,0.00,,---,0.00,VWS V14.01,2013-09-16 15:22:00,
2013-09-16 18:27:00,77.5,60.1,29.59,WSW,254,5.8,5.8,55,0.00,,---,0.00,VWS V14.01,2013-09-16 15:27:00,
2013-09-16 18:33:00,77.9,60.5,29.59,West,277,2.7,4.0,55,0.00,,---,0.00,VWS V14.01,2013-09-16 15:33:00,
2013-09-16 18:38:00,78.4,60.4,29.62,WNW,284,6.3,8.1,54,0.00,,---,0.00,VWS V14.01,2013-09-16 15:38:00,
2013-09-16 18:43:00,78.3,59.7,29.62,WSW,249,8.3,10.1,53,0.00,,---,0.00,VWS V14.01,2013-09-16 15:43:00,
2013-09-16 18:49:00,77.9,59.9,29.62,WSW,244,5.4,8.7,54,0.00,,---,0.00,VWS V14.01,2013-09-16 15:49:00,
2013-09-16 18:54:00,77.7,60.3,29.65,WNW,297,8.7,10.1,55,0.00,,---,0.00,VWS V14.01,2013-09-16 15:54:00,
2013-09-16 19:00:00,77.2,60.8,29.65,WNW,283,9.6,10.5,57,0.00,,---,0.00,VWS V14.01,2013-09-16 16:00:00,
2013-09-16 19:05:00,76.8,60.9,29.65,WNW,293,7.6,12.8,58,0.00,,---,0.00,VWS V14.01,2013-09-16 16:05:00,
2013-09-16 19:10:00,76.6,59.3,29.62,WNW,299,8.3,11.0,55,0.00,,---,0.00,VWS V14.01,2013-09-16 16:10:00,
2013-09-16 19:15:00,76.6,56.6,29.62,West,269,4.0,5.8,50,0.00,,---,0.00,VWS V14.01,2013-09-16 16:15:00,
2013-09-16 19:20:00,76.6,53.1,29.62,WSW,249,8.1,8.7,44,0.00,,---,0.00,VWS V14.01,2013-09-16 16:20:00,
2013-09-16 19:26:00,76.6,52.5,29.62,NW,305,9.6,10.5,43,0.00,,---,0.00,VWS V14.01,2013-09-16 16:26:00,
2013-09-16 19:32:00,76.6,52.5,29.62,WNW,286,6.3,11.0,43,0.00,,---,0.00,VWS V14.01,2013-09-16 16:32:00,
2013-09-16 19:37:00,76.6,51.8,29.62,West,261,5.4,8.1,42,0.00,,---,0.00,VWS V14.01,2013-09-16 16:37:00,
2013-09-16 19:43:00,76.6,51.2,29.65,WNW,284,4.9,5.4,41,0.00,,---,0.00,VWS V14.01,2013-09-16 16:43:00,
2013-09-16 19:49:00,76.5,51.0,29.65,West,263,8.1,8.7,41,0.00,,---,0.00,VWS V14.01,2013-09-16 16:49:00,
2013-09-16 19:54:00,76.3,50.9,29.65,West,273,6.3,8.1,41,0.00,,---,0.00,VWS V14.01,2013-09-16 16:54:00,
2013-09-16 20:00:00,76.1,51.4,29.65,WNW,298,10.1,10.1,42,0.00,,---,0.00,VWS V14.01,2013-09-16 17:00:00,
2013-09-16 20:05:00,75.9,51.8,29.65,WSW,243,5.4,8.7,43,0.00,,---,0.00,VWS V14.01,2013-09-16 17:05:00,
2013-09-16 20:10:00,75.4,51.3,29.62,West,260,5.8,5.8,43,0.00,,---,0.00,VWS V14.01,2013-09-16 17:10:00,
2013-09-16 20:15:00,75.2,51.8,29.62,WNW,289,6.3,6.3,44,0.00,,---,0.00,VWS V14.01,2013-09-16 17:15:00,
2013-09-16 20:21:00,75.0,52.3,29.62,West,267,3.6,5.4,45,0.00,,---,0.00,VWS V14.01,2013-09-16 17:21:00,
2013-09-16 20:27:00,74.7,52.5,29.62,WNW,282,10.5,10.5,46,0.00,,---,0.00,VWS V14.01,2013-09-16 17:27:00,
2013-09-16 20:32:00,74.7,52.5,29.62,West,259,2.7,6.3,46,0.00,,---,0.00,VWS V14.01,2013-09-16 17:32:00,
2013-09-16 20:38:00,74.5,53.0,29.65,WNW,301,4.9,7.6,47,0.00,,---,0.00,VWS V14.01,2013-09-16 17:38:00,
2013-09-16 20:43:00,74.3,52.8,29.65,WSW,257,7.6,8.7,47,0.00,,---,0.00,VWS V14.01,2013-09-16 17:43:00,
2013-09-16 20:49:00,73.9,53.0,29.65,WNW,297,6.3,8.3,48,0.00,,---,0.00,VWS V14.01,2013-09-16 17:49:00,
2013-09-16 20:54:00,73.8,53.4,29.65,WSW,249,8.7,8.7,49,0.00,,---,0.00,VWS V14.01,2013-09-16 17:54:00,
2013-09-16 20:59:00,73.6,54.4,29.65,NW,322,10.1,12.8,51,0.00,,---,0.00,VWS V14.01,2013-09-16 17:59:00,
2013-09-16 21:05:00,73.2,54.6,29.65,WNW,298,8.1,8.3,52,0.00,,---,0.00,VWS V14.01,2013-09-16 18:05:00,
2013-09-16 21:10:00,73.0,54.9,29.65,WNW,300,6.3,6.3,53,0.00,,---,0.00,VWS V14.01,2013-09-16 18:10:00,
2013-09-16 21:16:00,73.0,55.4,29.65,WNW,300,6.3,6.3,54,0.00,,---,0.00,VWS V14.01,2013-09-16 18:16:00,
2013-09-16 21:21:00,72.9,55.3,29.65,WNW,298,8.3,10.1,54,0.00,,---,0.00,VWS V14.01,2013-09-16 18:21:00,
2013-09-16 21:26:00,72.9,55.3,29.65,WNW,295,5.4,5.4,54,0.00,,---,0.00,VWS V14.01,2013-09-16 18:26:00,
2013-09-16 21:31:00,72.7,55.6,29.65,WNW,295,5.4,5.4,55,0.00,,---,0.00,VWS V14.01,2013-09-16 18:31:00,
2013-09-16 21:37:00,72.7,55.1,29.65,WSW,254,5.8,5.8,54,0.00,,---,0.00,VWS V14.01,2013-09-16 18:37:00,
2013-09-16 21:43:00,72.7,55.1,29.65,West,270,5.8,5.8,54,0.00,,---,0.00,VWS V14.01,2013-09-16 18:43:00,
2013-09-16 21:49:00,72.7,55.1,29.65,West,272,8.1,8.1,54,0.00,,---,0.00,VWS V14.01,2013-09-16 18:49:00,
2013-09-16 21:55:00,72.7,55.1,29.65,West,266,10.1,10.1,54,0.00,,---,0.00,VWS V14.01,2013-09-16 18:55:00,
2013-09-16 22:00:00,72.7,55.1,29.65,WSW,258,7.6,7.6,54,0.00,,---,0.00,VWS V14.01,2013-09-16 19:00:00,
2013-09-16 22:06:00,72.7,55.1,29.65,WSW,246,4.5,6.3,54,0.00,,---,0.00,VWS V14.01,2013-09-16 19:06:00,
2013-09-16 22:11:00,72.7,55.1,29.65,West,261,4.9,4.9,54,0.00,,---,0.00,VWS V14.01,2013-09-16 19:11:00,
2013-09-16 22:17:00,72.7,55.1,29.65,WSW,249,4.0,5.4,54,0.00,,---,0.00,VWS V14.01,2013-09-16 19:17:00,
2013-09-16 22:23:00,72.7,55.1,29.65,WSW,240,4.9,4.9,54,0.00,,---,0.00,VWS V14.01,2013-09-16 19:23:00,
2013-09-16 22:28:00,72.5,54.9,29.65,West,270,5.8,8.3,54,0.00,,---,0.00,VWS V14.01,2013-09-16 19:28:00,
2013-09-16 22:34:00,72.5,55.4,29.65,WSW,247,5.4,6.3,55,0.00,,---,0.00,VWS V14.01,2013-09-16 19:34:00,
2013-09-16 22:39:00,72.5,55.4,29.65,West,271,3.1,4.9,55,0.00,,---,0.00,VWS V14.01,2013-09-16 19:39:00,
2013-09-16 22:44:00,72.5,55.4,29.65,SW,229,5.4,7.6,55,0.00,,---,0.00,VWS V14.01,2013-09-16 19:44:00,
2013-09-16 22:49:00,72.3,55.8,29.65,WSW,248,6.3,7.6,56,0.00,,---,0.00,VWS V14.01,2013-09-16 19:49:00,
2013-09-16 22:55:00,72.1,56.1,29.65,SSW,209,3.1,5.4,57,0.00,,---,0.00,VWS V14.01,2013-09-16 19:55:00,
2013-09-16 23:00:00,72.1,56.1,29.65,SW,236,6.3,7.6,57,0.00,,---,0.00,VWS V14.01,2013-09-16 20:00:00,
2013-09-16 23:06:00,72.1,56.6,29.65,SW,236,8.3,8.3,58,0.00,,---,0.00,VWS V14.01,2013-09-16 20:06:00,
2013-09-16 23:12:00,72.0,56.4,29.65,SSW,194,7.6,7.6,58,0.00,,---,0.00,VWS V14.01,2013-09-16 20:12:00,
2013-09-16 23:17:00,72.0,56.9,29.65,South,184,5.4,5.4,59,0.00,,---,0.00,VWS V14.01,2013-09-16 20:17:00,
2013-09-16 23:22:00,71.8,57.2,29.68,SW,230,5.4,5.4,60,0.00,,---,0.00,VWS V14.01,2013-09-16 20:22:00,
2013-09-16 23:27:00,71.6,57.5,29.68,SSW,202,4.0,5.8,61,0.00,,---,0.00,VWS V14.01,2013-09-16 20:27:00,
2013-09-16 23:33:00,71.6,57.5,29.68,SSW,206,5.8,7.2,61,0.00,,---,0.00,VWS V14.01,2013-09-16 20:33:00,
2013-09-16 23:38:00,71.4,57.7,29.68,SSW,194,5.8,7.6,62,0.00,,---,0.00,VWS V14.01,2013-09-16 20:38:00,
2013-09-16 23:44:00,71.2,58.0,29.68,SSW,207,3.1,7.6,63,0.00,,---,0.00,VWS V14.01,2013-09-16 20:44:00,
2013-09-16 23:49:00,71.2,58.5,29.68,SSW,200,5.4,5.4,64,0.00,,---,0.00,VWS V14.01,2013-09-16 20:49:00,
2013-09-16 23:55:00,71.2,58.9,29.68,South,177,6.3,7.6,65,0.00,,---,0.00,VWS V14.01,2013-09-16 20:55:00,